createdAt,value
2018-05-25T00:00:26.441Z,62.10
2018-05-25T00:02:53.436Z,62.30
2018-05-25T00:05:20.441Z,62.20
2018-05-25T00:07:48.229Z,62.20
2018-05-25T00:10:15.236Z,62.30
2018-05-25T00:12:42.259Z,62.10
2018-05-25T00:15:09.280Z,62.20
2018-05-25T00:17:36.285Z,62.20
2018-05-25T00:20:03.274Z,62.30
2018-05-25T00:22:30.267Z,62.30
2018-05-25T00:24:57.260Z,62.30
2018-05-25T00:27:24.258Z,62.30
2018-05-25T00:29:51.258Z,62.30
2018-05-25T00:32:18.255Z,62.30
2018-05-25T00:34:45.250Z,62.30
2018-05-25T00:37:12.263Z,62.40
2018-05-25T00:39:40.026Z,62.40
2018-05-25T00:42:07.792Z,62.50
2018-05-25T00:44:35.561Z,62.50
2018-05-25T00:47:02.554Z,62.50
2018-05-25T00:49:29.553Z,62.50
2018-05-25T00:51:56.551Z,62.50
2018-05-25T00:54:23.543Z,62.50
2018-05-25T00:56:50.535Z,62.50
2018-05-25T00:59:17.530Z,62.60
2018-05-25T01:01:45.291Z,62.60
2018-05-25T01:04:13.050Z,62.60
2018-05-25T01:06:40.820Z,62.60
2018-05-25T01:09:08.579Z,62.60
2018-05-25T01:11:36.346Z,62.60
2018-05-25T01:14:04.110Z,62.60
2018-05-25T01:16:31.865Z,62.60
2018-05-25T01:18:59.634Z,62.70
2018-05-25T01:21:27.403Z,62.70
2018-05-25T01:23:55.162Z,62.70
2018-05-25T01:26:22.935Z,62.80
2018-05-25T01:28:50.692Z,62.80
2018-05-25T01:31:18.458Z,62.80
2018-05-25T01:33:46.223Z,62.80
2018-05-25T01:36:13.986Z,62.90
2018-05-25T01:38:41.742Z,62.90
2018-05-25T01:41:09.505Z,62.90
2018-05-25T01:43:37.265Z,63.70
2018-05-25T01:46:05.038Z,62.80
2018-05-25T01:48:32.802Z,62.90
2018-05-25T01:51:00.566Z,62.80
2018-05-25T01:53:28.371Z,63.00
2018-05-25T01:55:55.333Z,62.90
2018-05-25T01:58:22.322Z,62.70
2018-05-25T02:00:50.106Z,62.90
2018-05-25T02:03:17.098Z,62.90
2018-05-25T02:05:44.085Z,62.90
2018-05-25T02:08:11.082Z,62.80
2018-05-25T02:10:38.081Z,62.90
2018-05-25T02:13:05.084Z,62.90
2018-05-25T02:15:32.081Z,62.90
2018-05-25T02:17:59.078Z,62.80
2018-05-25T02:20:26.074Z,63.70
2018-05-25T02:22:53.075Z,62.90
2018-05-25T02:25:20.073Z,62.90
2018-05-25T02:27:47.091Z,62.50
2018-05-25T02:30:14.857Z,63.00
2018-05-25T02:32:41.861Z,62.90
2018-05-25T02:35:08.862Z,62.90
2018-05-25T02:37:35.868Z,63.00
2018-05-25T02:40:02.867Z,63.00
2018-05-25T02:42:33.353Z,63.10
2018-05-25T02:45:01.122Z,63.10
2018-05-25T02:47:28.896Z,63.00
2018-05-25T02:49:55.903Z,62.90
2018-05-25T02:52:22.915Z,63.00
2018-05-25T02:54:49.918Z,63.00
2018-05-25T02:57:17.735Z,63.10
2018-05-25T02:59:45.449Z,63.00
2018-05-25T03:02:13.223Z,63.00
2018-05-25T03:04:40.985Z,63.00
2018-05-25T03:07:08.753Z,63.00
2018-05-25T03:09:35.768Z,63.00
2018-05-25T03:12:02.774Z,63.10
2018-05-25T03:14:29.774Z,62.80
2018-05-25T03:16:57.573Z,62.90
2018-05-25T03:19:25.325Z,63.00
2018-05-25T03:21:52.387Z,62.90
2018-05-25T03:24:19.389Z,62.90
2018-05-25T03:26:46.383Z,63.00
2018-05-25T03:29:13.381Z,62.90
2018-05-25T03:31:41.142Z,62.90
2018-05-25T03:34:08.137Z,62.90
2018-05-25T03:36:35.130Z,62.90
2018-05-25T03:39:02.169Z,62.90
2018-05-25T03:41:29.167Z,63.70
2018-05-25T03:43:56.173Z,62.90
2018-05-25T03:46:23.938Z,62.90
2018-05-25T03:48:50.937Z,62.80
2018-05-25T03:51:17.934Z,62.80
2018-05-25T03:53:45.701Z,62.90
2018-05-25T03:56:13.472Z,62.80
2018-05-25T03:58:47.309Z,62.90
2018-05-25T04:01:20.306Z,62.80
2018-05-25T04:03:47.311Z,62.90
2018-05-25T04:06:15.074Z,62.90
2018-05-25T04:08:42.847Z,62.90
2018-05-25T04:11:09.839Z,62.80
2018-05-25T04:13:36.858Z,62.90
2018-05-25T04:16:03.862Z,62.80
2018-05-25T04:18:30.854Z,62.80
2018-05-25T04:20:57.841Z,63.60
2018-05-25T04:23:24.842Z,62.80
2018-05-25T04:25:51.840Z,62.80
2018-05-25T04:28:18.838Z,62.80
2018-05-25T04:30:45.843Z,62.90
2018-05-25T04:33:13.601Z,62.80
2018-05-25T04:35:41.377Z,62.80
2018-05-25T04:38:09.136Z,62.80
2018-05-25T04:40:36.909Z,62.80
2018-05-25T04:43:04.667Z,62.80
2018-05-25T04:45:32.431Z,62.90
2018-05-25T04:48:00.193Z,62.80
2018-05-25T04:50:27.966Z,62.90
2018-05-25T04:52:55.716Z,62.80
2018-05-25T04:55:23.485Z,62.80
2018-05-25T04:57:51.245Z,62.80
2018-05-25T05:00:19.021Z,62.90
2018-05-25T05:02:46.051Z,62.80
2018-05-25T05:05:13.826Z,62.80
2018-05-25T05:07:41.593Z,62.90
2018-05-25T05:10:08.607Z,62.90
2018-05-25T05:12:35.603Z,62.80
2018-05-25T05:15:02.595Z,62.80
2018-05-25T05:17:29.582Z,62.80
2018-05-25T05:19:56.574Z,62.80
2018-05-25T05:22:23.569Z,62.90
2018-05-25T05:24:50.567Z,62.80
2018-05-25T05:27:17.555Z,62.90
2018-05-25T05:29:45.314Z,62.90
2018-05-25T05:32:13.074Z,62.90
2018-05-25T05:34:40.840Z,62.90
2018-05-25T05:37:08.599Z,62.90
2018-05-25T05:39:36.362Z,62.90
2018-05-25T05:42:04.123Z,62.90
2018-05-25T05:44:31.882Z,62.80
2018-05-25T05:46:59.170Z,62.80
2018-05-25T05:49:26.165Z,63.60
2018-05-25T05:51:53.195Z,62.90
2018-05-25T05:54:20.188Z,62.90
2018-05-25T05:56:47.958Z,62.80
2018-05-25T05:59:15.718Z,62.90
2018-05-25T06:01:43.565Z,62.90
2018-05-25T06:04:10.585Z,62.90
2018-05-25T06:06:37.597Z,63.00
2018-05-25T06:09:05.513Z,62.90
2018-05-25T06:11:32.518Z,63.00
2018-05-25T06:13:59.637Z,62.80
2018-05-25T06:16:27.398Z,63.40
2018-05-25T06:18:55.166Z,64.40
2018-05-25T06:21:22.164Z,64.40
2018-05-25T06:23:49.162Z,65.30
2018-05-25T06:26:16.919Z,66.00
2018-05-25T06:28:44.684Z,65.80
2018-05-25T06:31:14.359Z,65.60
2018-05-25T06:33:41.351Z,65.60
2018-05-25T06:36:08.342Z,65.10
2018-05-25T06:38:35.341Z,65.00
2018-05-25T06:41:02.328Z,65.00
2018-05-25T06:43:29.321Z,65.00
2018-05-25T06:45:57.078Z,65.70
2018-05-25T06:48:24.847Z,64.90
2018-05-25T06:50:52.605Z,64.90
2018-05-25T06:53:20.362Z,65.00
2018-05-25T06:55:48.126Z,64.80
2018-05-25T06:58:15.891Z,64.70
2018-05-25T07:00:43.653Z,64.70
2018-05-25T07:03:11.431Z,64.60
2018-05-25T07:05:39.180Z,64.60
2018-05-25T07:08:06.963Z,64.60
2018-05-25T07:10:34.722Z,64.50
2018-05-25T07:13:02.475Z,64.40
2018-05-25T07:15:30.233Z,64.40
2018-05-25T07:17:58.000Z,64.10
2018-05-25T07:20:25.000Z,64.20
2018-05-25T07:22:51.993Z,64.10
2018-05-25T07:25:19.770Z,64.10
2018-05-25T07:27:46.768Z,64.00
2018-05-25T07:30:13.758Z,63.90
2018-05-25T07:32:41.514Z,64.80
2018-05-25T07:35:09.281Z,64.80
2018-05-25T07:37:37.045Z,63.90
2018-05-25T07:40:04.803Z,63.90
2018-05-25T07:42:32.554Z,63.90
2018-05-25T07:44:59.554Z,63.90
2018-05-25T07:47:26.549Z,63.90
2018-05-25T07:49:53.537Z,63.80
2018-05-25T07:52:20.535Z,64.00
2018-05-25T07:54:47.546Z,63.70
2018-05-25T07:57:14.543Z,63.70
2018-05-25T07:59:42.303Z,63.80
2018-05-25T08:02:09.294Z,63.70
2018-05-25T08:04:36.285Z,63.80
2018-05-25T08:07:03.286Z,63.80
2018-05-25T08:09:30.282Z,64.60
2018-05-25T08:11:57.292Z,63.70
2018-05-25T08:14:24.274Z,63.70
2018-05-25T08:16:51.269Z,63.60
2018-05-25T08:19:18.253Z,63.60
2018-05-25T08:21:45.311Z,63.60
2018-05-25T08:24:12.414Z,63.60
2018-05-25T08:26:39.410Z,63.50
2018-05-25T08:29:07.170Z,63.50
2018-05-25T08:31:34.939Z,63.70
2018-05-25T08:34:02.696Z,63.60
2018-05-25T08:36:29.704Z,63.50
2018-05-25T08:38:56.702Z,63.60
2018-05-25T08:41:24.466Z,63.40
2018-05-25T08:43:52.355Z,63.50
2018-05-25T08:46:19.369Z,63.50
2018-05-25T08:48:47.125Z,63.50
2018-05-25T08:51:14.896Z,63.50
2018-05-25T08:53:42.651Z,63.50
2018-05-25T08:56:09.645Z,63.50
2018-05-25T08:58:36.635Z,63.30
2018-05-25T09:01:03.634Z,63.50
2018-05-25T09:03:30.635Z,63.40
2018-05-25T09:05:57.636Z,63.50
2018-05-25T09:08:24.633Z,63.10
2018-05-25T09:10:51.625Z,63.40
2018-05-25T09:13:18.624Z,63.40
2018-05-25T09:15:46.378Z,63.40
2018-05-25T09:18:13.392Z,63.40
2018-05-25T09:20:40.400Z,63.40
2018-05-25T09:23:07.398Z,63.30
2018-05-25T09:25:34.389Z,63.30
2018-05-25T09:28:01.399Z,63.20
2018-05-25T09:30:28.382Z,63.20
2018-05-25T09:32:55.392Z,63.20
2018-05-25T09:35:22.402Z,63.20
2018-05-25T09:37:49.400Z,63.10
2018-05-25T09:40:17.186Z,63.10
2018-05-25T09:42:44.185Z,63.00
2018-05-25T09:45:11.178Z,63.00
2018-05-25T09:47:38.196Z,63.00
2018-05-25T09:50:05.191Z,63.00
2018-05-25T09:52:32.207Z,62.90
2018-05-25T09:55:00.670Z,62.90
2018-05-25T09:57:27.687Z,62.90
2018-05-25T09:59:54.680Z,62.90
2018-05-25T10:02:22.441Z,62.80
2018-05-25T10:04:50.207Z,62.80
2018-05-25T10:07:17.971Z,62.80
2018-05-25T10:09:45.750Z,62.80
2018-05-25T10:12:12.755Z,62.70
2018-05-25T10:14:39.754Z,62.80
2018-05-25T10:17:06.750Z,62.70
2018-05-25T10:19:33.759Z,62.70
2018-05-25T10:22:00.777Z,62.70
2018-05-25T10:24:27.781Z,62.70
2018-05-25T10:26:54.779Z,62.70
2018-05-25T10:29:21.778Z,62.60
2018-05-25T10:31:48.777Z,62.60
2018-05-25T10:34:15.773Z,62.60
2018-05-25T10:36:42.775Z,62.70
2018-05-25T10:39:09.772Z,62.70
2018-05-25T10:41:37.539Z,62.40
2018-05-25T10:44:04.547Z,62.40
2018-05-25T10:46:31.530Z,62.50
2018-05-25T10:48:59.294Z,62.50
2018-05-25T10:51:27.055Z,62.50
2018-05-25T10:53:54.045Z,62.40
2018-05-25T10:56:21.059Z,62.50
2018-05-25T10:58:48.834Z,62.40
2018-05-25T11:01:15.847Z,62.30
2018-05-25T11:03:42.861Z,62.50
2018-05-25T11:06:09.837Z,62.30
2018-05-25T11:08:36.834Z,62.20
2018-05-25T11:11:03.843Z,62.30
2018-05-25T11:13:31.602Z,62.30
2018-05-25T11:15:58.606Z,62.10
2018-05-25T11:18:25.606Z,62.60
2018-05-25T11:20:53.380Z,62.20
2018-05-25T11:23:21.124Z,62.10
2018-05-25T11:25:48.886Z,62.10
2018-05-25T11:28:15.888Z,62.10
2018-05-25T11:30:42.902Z,62.10
2018-05-25T11:33:09.901Z,62.00
2018-05-25T11:35:37.662Z,62.00
2018-05-25T11:38:04.649Z,62.00
2018-05-25T11:40:32.416Z,62.00
2018-05-25T11:43:00.166Z,62.00
2018-05-25T11:45:27.930Z,62.50
2018-05-25T11:47:54.926Z,62.00
2018-05-25T11:50:21.919Z,62.00
2018-05-25T11:52:49.707Z,62.00
2018-05-25T11:55:16.705Z,61.90
2018-05-25T11:57:43.710Z,61.90
2018-05-25T12:00:10.709Z,62.00
2018-05-25T12:02:37.715Z,61.90
2018-05-25T12:05:04.697Z,61.90
2018-05-25T12:07:31.699Z,61.90
2018-05-25T12:09:58.697Z,61.70
2018-05-25T12:12:25.719Z,61.90
2018-05-25T12:14:53.489Z,61.80
2018-05-25T12:17:20.470Z,61.80
2018-05-25T12:19:48.226Z,61.70
2018-05-25T12:22:15.982Z,61.90
2018-05-25T12:24:42.980Z,61.70
2018-05-25T12:27:09.971Z,61.40
2018-05-25T12:29:36.966Z,61.70
2018-05-25T12:32:03.963Z,61.70
2018-05-25T12:34:30.954Z,61.60
2018-05-25T12:36:57.950Z,61.60
2018-05-25T12:39:24.942Z,61.60
2018-05-25T12:41:51.938Z,61.60
2018-05-25T12:44:18.938Z,61.50
2018-05-25T12:46:45.935Z,61.50
2018-05-25T12:49:12.947Z,61.50
2018-05-25T12:51:39.939Z,61.50
2018-05-25T12:54:07.708Z,62.10
2018-05-25T12:56:35.470Z,61.50
2018-05-25T12:59:03.254Z,61.40
2018-05-25T13:01:30.247Z,61.40
2018-05-25T13:03:57.238Z,61.40
2018-05-25T13:06:24.238Z,61.40
2018-05-25T13:08:51.229Z,61.30
2018-05-25T13:11:18.991Z,61.50
2018-05-25T13:13:46.751Z,61.40
2018-05-25T13:16:14.500Z,61.50
2018-05-25T13:18:42.261Z,61.30
2018-05-25T13:21:09.250Z,61.40
2018-05-25T13:23:36.238Z,61.40
2018-05-25T13:26:03.244Z,61.40
2018-05-25T13:28:30.225Z,61.30
2018-05-25T13:30:57.223Z,61.30
2018-05-25T13:33:24.214Z,61.30
2018-05-25T13:35:51.217Z,61.30
2018-05-25T13:38:18.213Z,61.20
2018-05-25T13:40:45.214Z,61.20
2018-05-25T13:43:12.210Z,61.20
2018-05-25T13:45:39.206Z,61.20
2018-05-25T13:48:06.207Z,61.20
2018-05-25T13:50:33.199Z,61.20
2018-05-25T13:53:00.194Z,61.20
2018-05-25T13:55:27.186Z,61.20
2018-05-25T13:57:54.184Z,61.20
2018-05-25T14:00:21.181Z,61.20
2018-05-25T14:02:48.178Z,61.20
2018-05-25T14:05:15.183Z,61.20
2018-05-25T14:07:42.182Z,61.30
2018-05-25T14:10:09.938Z,61.20
2018-05-25T14:12:36.970Z,61.30
2018-05-25T14:15:03.999Z,61.70
2018-05-25T14:17:31.056Z,61.80
2018-05-25T14:19:58.074Z,61.70
2018-05-25T14:22:25.071Z,61.30
2018-05-25T14:24:52.072Z,61.30
2018-05-25T14:27:19.074Z,61.40
2018-05-25T14:29:46.834Z,61.30
2018-05-25T14:32:15.610Z,61.20
2018-05-25T14:34:42.611Z,61.20
2018-05-25T14:37:09.602Z,61.20
2018-05-25T14:39:36.607Z,61.20
2018-05-25T14:42:03.622Z,61.20
2018-05-25T14:44:31.395Z,61.10
2018-05-25T14:46:58.385Z,61.10
2018-05-25T14:49:25.458Z,61.10
2018-05-25T14:51:52.418Z,61.10
2018-05-25T14:54:20.183Z,61.20
2018-05-25T14:56:47.943Z,61.20
2018-05-25T14:59:15.710Z,61.10
2018-05-25T15:01:43.462Z,61.20
2018-05-25T15:04:10.458Z,61.10
2018-05-25T15:06:37.513Z,61.10
2018-05-25T15:09:05.233Z,61.10
2018-05-25T15:11:32.994Z,61.10
2018-05-25T15:14:00.775Z,61.10
2018-05-25T15:16:27.780Z,61.10
2018-05-25T15:18:54.797Z,61.10
2018-05-25T15:21:21.801Z,61.10
2018-05-25T15:23:49.574Z,62.40
2018-05-25T15:26:16.566Z,62.40
2018-05-25T15:28:43.576Z,62.10
2018-05-25T15:31:10.578Z,61.90
2018-05-25T15:33:37.573Z,61.60
2018-05-25T15:36:04.583Z,61.40
2018-05-25T15:38:32.534Z,61.40
2018-05-25T15:40:59.521Z,61.60
2018-05-25T15:43:26.521Z,61.60
2018-05-25T15:45:53.554Z,61.40
2018-05-25T15:48:20.547Z,61.40
2018-05-25T15:50:48.304Z,67.30
2018-05-25T15:53:15.298Z,67.20
2018-05-25T15:55:42.301Z,63.70
2018-05-25T15:58:10.068Z,63.10
2018-05-25T16:00:37.829Z,68.50
2018-05-25T16:03:05.635Z,69.10
2018-05-25T16:05:32.633Z,69.10
2018-05-25T16:07:59.650Z,71.40
2018-05-25T16:10:26.697Z,72.50
2018-05-25T16:12:53.693Z,72.00
2018-05-25T16:15:21.478Z,70.70
2018-05-25T16:17:48.474Z,70.70
2018-05-25T16:20:15.472Z,68.40
2018-05-25T16:22:42.496Z,67.20
2018-05-25T16:25:10.263Z,65.00
2018-05-25T16:27:38.018Z,64.80
2018-05-25T16:30:05.790Z,64.70
2018-05-25T16:32:33.553Z,64.30
2018-05-25T16:35:01.319Z,64.80
2018-05-25T16:37:29.084Z,65.10
2018-05-25T16:39:56.843Z,66.90
2018-05-25T16:42:24.606Z,65.90
2018-05-25T16:44:52.370Z,65.30
2018-05-25T16:47:20.126Z,64.50
2018-05-25T16:49:47.955Z,63.90
2018-05-25T16:52:14.948Z,64.00
2018-05-25T16:54:42.709Z,63.50
2018-05-25T16:57:10.514Z,63.40
2018-05-25T16:59:37.506Z,63.40
2018-05-25T17:02:04.504Z,63.30
2018-05-25T17:04:31.495Z,63.30
2018-05-25T17:06:58.514Z,63.20
2018-05-25T17:09:25.542Z,63.20
2018-05-25T17:11:52.527Z,63.10
2018-05-25T17:14:19.559Z,63.10
2018-05-25T17:16:46.553Z,63.10
2018-05-25T17:19:14.318Z,63.00
2018-05-25T17:21:41.324Z,63.00
2018-05-25T17:24:08.348Z,63.00
2018-05-25T17:26:36.220Z,62.90
2018-05-25T17:29:03.247Z,63.70
2018-05-25T17:31:30.310Z,62.90
2018-05-25T17:33:57.335Z,62.90
2018-05-25T17:36:24.347Z,62.90
2018-05-25T17:38:52.097Z,62.80
2018-05-25T17:41:19.093Z,62.80
2018-05-25T17:43:46.142Z,62.20
2018-05-25T17:46:13.192Z,62.80
2018-05-25T17:48:40.181Z,62.80
2018-05-25T17:51:07.227Z,62.80
2018-05-25T17:53:34.262Z,62.80
2018-05-25T17:56:01.278Z,63.50
2018-05-25T17:58:28.310Z,62.70
2018-05-25T18:00:55.316Z,62.70
2018-05-25T18:03:22.356Z,62.70
2018-05-25T18:05:49.389Z,62.70
2018-05-25T18:08:16.386Z,62.70
2018-05-25T18:10:43.388Z,62.70
2018-05-25T18:13:10.390Z,62.60
2018-05-25T18:15:37.373Z,62.60
2018-05-25T18:18:04.391Z,62.50
2018-05-25T18:20:31.575Z,62.60
2018-05-25T18:22:58.637Z,62.60
2018-05-25T18:25:25.631Z,62.50
2018-05-25T18:27:52.710Z,63.20
2018-05-25T18:30:19.732Z,62.50
2018-05-25T18:32:46.794Z,63.00
2018-05-25T18:35:13.783Z,63.60
2018-05-25T18:37:42.435Z,64.00
2018-05-25T18:40:10.222Z,63.80
2018-05-25T18:42:38.079Z,63.40
2018-05-25T18:45:05.088Z,63.30
2018-05-25T18:47:32.072Z,63.10
2018-05-25T18:49:59.067Z,63.00
2018-05-25T18:52:26.142Z,63.40
2018-05-25T18:54:53.235Z,62.80
2018-05-25T18:57:20.282Z,64.30
2018-05-25T18:59:47.349Z,64.60
2018-05-25T19:02:14.348Z,64.60
2018-05-25T19:04:41.380Z,64.40
2018-05-25T19:07:08.369Z,63.90
2018-05-25T19:09:35.390Z,63.50
2018-05-25T19:12:03.919Z,63.10
2018-05-25T19:14:30.915Z,63.10
2018-05-25T19:16:57.929Z,63.00
2018-05-25T19:19:24.927Z,63.70
2018-05-25T19:21:52.700Z,62.90
2018-05-25T19:24:19.708Z,62.90
2018-05-25T19:26:46.731Z,62.80
2018-05-25T19:29:13.743Z,62.80
2018-05-25T19:31:40.763Z,62.80
2018-05-25T19:34:07.753Z,62.80
2018-05-25T19:36:34.758Z,62.80
2018-05-25T19:39:02.529Z,62.80
2018-05-25T19:41:30.323Z,62.80
2018-05-25T19:43:57.326Z,62.70
2018-05-25T19:46:25.150Z,62.80
2018-05-25T19:48:52.155Z,62.70
2018-05-25T19:51:19.698Z,62.80
2018-05-25T19:53:47.463Z,62.80
2018-05-25T19:56:15.240Z,62.80
2018-05-25T19:58:44.130Z,62.70
2018-05-25T20:01:11.891Z,62.80
2018-05-25T20:03:39.659Z,62.80
2018-05-25T20:06:07.425Z,62.80
2018-05-25T20:08:35.396Z,62.70
2018-05-25T20:11:02.406Z,62.70
2018-05-25T20:13:29.409Z,62.70
2018-05-25T20:15:56.413Z,62.70
2018-05-25T20:18:25.219Z,62.90
2018-05-25T20:20:52.355Z,62.80
2018-05-25T20:23:20.315Z,62.90
2018-05-25T20:25:47.268Z,62.80
2018-05-25T20:28:15.040Z,62.80
2018-05-25T20:30:42.794Z,62.80
2018-05-25T20:33:10.575Z,62.90
2018-05-25T20:35:37.575Z,62.80
2018-05-25T20:38:04.590Z,62.80
2018-05-25T20:40:31.586Z,62.80
2018-05-25T20:42:59.364Z,63.60
2018-05-25T20:45:27.122Z,62.80
2018-05-25T20:47:54.894Z,62.80
2018-05-25T20:50:22.654Z,62.80
2018-05-25T20:52:50.415Z,62.80
2018-05-25T20:55:18.199Z,62.80
2018-05-25T20:57:45.209Z,62.80
2018-05-25T21:00:12.219Z,62.80
2018-05-25T21:02:40.221Z,62.80
2018-05-25T21:05:07.241Z,62.80
2018-05-25T21:07:34.244Z,62.90
2018-05-25T21:10:02.018Z,62.90
2018-05-25T21:12:29.024Z,62.90
2018-05-25T21:14:56.054Z,62.80
2018-05-25T21:17:23.064Z,62.80
2018-05-25T21:19:50.075Z,62.90
2018-05-25T21:22:17.869Z,62.20
2018-05-25T21:24:44.861Z,62.90
2018-05-25T21:27:11.879Z,62.80
2018-05-25T21:29:38.888Z,62.90
2018-05-25T21:32:06.646Z,62.90
2018-05-25T21:34:34.419Z,62.90
2018-05-25T21:37:02.174Z,62.90
2018-05-25T21:39:29.971Z,63.00
2018-05-25T21:41:56.969Z,63.00
2018-05-25T21:44:23.965Z,62.90
2018-05-25T21:46:50.958Z,63.00
2018-05-25T21:49:17.957Z,63.00
2018-05-25T21:51:44.959Z,63.00
2018-05-25T21:54:11.959Z,62.90
2018-05-25T21:56:38.949Z,63.00
2018-05-25T21:59:06.715Z,63.00
2018-05-25T22:01:34.476Z,63.00
2018-05-25T22:04:01.475Z,62.90
2018-05-25T22:06:28.463Z,63.00
2018-05-25T22:08:55.458Z,63.00
2018-05-25T22:11:22.454Z,63.00
2018-05-25T22:13:49.454Z,63.00
2018-05-25T22:16:16.437Z,63.40
2018-05-25T22:18:43.431Z,63.00
2018-05-25T22:21:10.423Z,63.00
2018-05-25T22:23:37.418Z,63.00
2018-05-25T22:26:04.413Z,63.00
2018-05-25T22:28:31.411Z,63.00
2018-05-25T22:30:58.428Z,63.00
2018-05-25T22:33:26.241Z,63.00
2018-05-25T22:35:53.974Z,63.00
2018-05-25T22:38:20.973Z,63.70
2018-05-25T22:40:48.725Z,63.00
2018-05-25T22:43:21.794Z,62.50
2018-05-25T22:45:54.865Z,63.00
2018-05-25T22:48:27.819Z,63.00
2018-05-25T22:51:00.774Z,63.90
2018-05-25T22:53:33.228Z,62.90
2018-05-25T22:56:00.231Z,63.10
2018-05-25T22:58:27.987Z,64.00
2018-05-25T23:00:54.982Z,63.10
2018-05-25T23:03:21.963Z,63.00
2018-05-25T23:05:48.962Z,63.00
2018-05-25T23:08:15.955Z,63.10
2018-05-25T23:10:42.957Z,63.00
2018-05-25T23:13:09.950Z,63.00
2018-05-25T23:15:36.946Z,63.00
2018-05-25T23:18:03.950Z,63.00
2018-05-25T23:20:32.729Z,63.00
2018-05-25T23:22:59.729Z,64.00
2018-05-25T23:25:26.729Z,63.80
2018-05-25T23:27:53.727Z,63.00
2018-05-25T23:30:37.608Z,63.10
2018-05-25T23:33:04.613Z,63.00
2018-05-25T23:35:31.609Z,63.10
2018-05-25T23:37:58.612Z,63.10
2018-05-25T23:40:25.606Z,63.10
2018-05-25T23:42:53.383Z,63.10
2018-05-25T23:45:21.150Z,63.10
2018-05-25T23:47:48.915Z,63.10
2018-05-25T23:50:15.900Z,63.10
2018-05-25T23:52:42.901Z,63.10
2018-05-25T23:55:10.658Z,63.10
2018-05-25T23:57:38.428Z,63.20
